createdAt,value
2018-01-31T01:52:20.344Z,0
2018-01-31T01:52:21.228Z,0
2018-01-31T01:52:21.831Z,0
2018-01-31T01:52:33.679Z,0
2018-01-31T01:53:14.239Z,0
2018-01-31T01:53:54.801Z,0
2018-01-31T01:54:35.363Z,0
2018-01-31T01:55:15.918Z,0
2018-01-31T01:55:56.479Z,0
2018-01-31T01:56:37.025Z,0
2018-01-31T01:57:17.589Z,0
2018-01-31T01:57:58.143Z,0
2018-01-31T01:58:38.705Z,0
2018-01-31T01:59:19.256Z,0
2018-01-31T01:59:59.815Z,0
2018-01-31T02:00:40.400Z,0
2018-01-31T02:01:20.944Z,0
2018-01-31T02:02:01.518Z,0
2018-01-31T02:02:42.078Z,0
2018-01-31T02:03:22.635Z,0
2018-01-31T02:04:03.203Z,0
2018-01-31T02:04:43.754Z,0
2018-01-31T02:05:24.328Z,0
2018-01-31T02:06:04.908Z,0
2018-01-31T02:06:45.464Z,0
2018-01-31T02:07:26.017Z,0
2018-01-31T02:08:06.581Z,0
2018-01-31T02:08:47.144Z,0
2018-01-31T02:09:27.724Z,0
2018-01-31T02:10:08.279Z,0
2018-01-31T02:10:48.837Z,0
2018-01-31T02:11:29.394Z,0
2018-01-31T02:12:09.953Z,0
2018-01-31T02:12:50.526Z,0
2018-01-31T02:13:31.089Z,0
2018-01-31T02:14:11.650Z,0
2018-01-31T02:14:52.209Z,0
2018-01-31T02:15:32.787Z,0
2018-01-31T02:16:13.337Z,0
2018-01-31T02:16:53.904Z,0
2018-01-31T02:17:34.469Z,0
2018-01-31T02:18:15.033Z,0
2018-01-31T02:18:55.589Z,0
2018-01-31T02:19:36.161Z,0
2018-01-31T02:20:16.722Z,0
2018-01-31T02:20:57.280Z,0
2018-01-31T02:21:37.829Z,0
2018-01-31T02:22:18.410Z,0
2018-01-31T02:22:58.973Z,0
2018-01-31T02:23:39.538Z,0
2018-01-31T02:24:20.096Z,0
2018-01-31T02:25:00.663Z,0
2018-01-31T02:25:41.239Z,0
2018-01-31T02:26:21.786Z,0
2018-01-31T02:27:02.363Z,0
2018-01-31T02:27:42.919Z,0
2018-01-31T02:28:23.473Z,0
2018-01-31T02:29:04.038Z,0
2018-01-31T02:29:44.617Z,0
2018-01-31T02:30:25.174Z,0
2018-01-31T02:31:05.740Z,0
2018-01-31T02:31:46.322Z,0
2018-01-31T02:32:26.887Z,0
2018-01-31T02:33:07.455Z,0
2018-01-31T02:33:48.022Z,0
2018-01-31T02:34:28.572Z,0
2018-01-31T02:35:09.128Z,0
2018-01-31T02:35:49.691Z,0
2018-01-31T02:36:30.252Z,0
2018-01-31T02:37:10.845Z,0
2018-01-31T02:37:51.473Z,0
2018-01-31T02:38:32.038Z,0
2018-01-31T02:39:12.595Z,0
2018-01-31T02:39:53.159Z,0
2018-01-31T02:40:33.731Z,0
2018-01-31T02:41:14.293Z,0
2018-01-31T02:41:54.843Z,0
2018-01-31T02:42:35.402Z,0
2018-01-31T02:43:15.961Z,0
2018-01-31T02:43:56.526Z,0
2018-01-31T02:44:37.070Z,0
2018-01-31T02:45:17.642Z,0
2018-01-31T02:45:58.208Z,0
2018-01-31T02:46:38.764Z,0
2018-01-31T02:47:19.330Z,0
2018-01-31T02:47:59.890Z,0
2018-01-31T02:48:40.454Z,0
2018-01-31T02:49:21.033Z,0
2018-01-31T02:50:01.597Z,0
2018-01-31T02:50:42.183Z,0
2018-01-31T02:51:22.797Z,0
2018-01-31T02:52:03.359Z,0
2018-01-31T02:52:43.919Z,0
2018-01-31T02:53:24.486Z,0
2018-01-31T02:54:05.060Z,0
2018-01-31T02:54:45.614Z,0
2018-01-31T02:55:26.196Z,0
2018-01-31T02:56:06.756Z,0
2018-01-31T02:56:47.308Z,0
2018-01-31T02:57:27.892Z,0
2018-01-31T02:58:08.466Z,0
2018-01-31T02:58:49.024Z,0
2018-01-31T02:59:29.578Z,0
2018-01-31T03:00:10.153Z,0
2018-01-31T03:00:50.708Z,0
2018-01-31T03:01:31.253Z,0
2018-01-31T03:02:11.813Z,0
2018-01-31T03:02:52.369Z,0
2018-01-31T03:03:32.921Z,0
2018-01-31T03:04:13.471Z,0
2018-01-31T03:04:54.026Z,0
2018-01-31T03:05:34.577Z,0
2018-01-31T03:06:15.132Z,0
2018-01-31T03:06:55.679Z,0
2018-01-31T03:07:36.228Z,0
2018-01-31T03:08:16.792Z,0
2018-01-31T03:08:57.354Z,0
2018-01-31T03:09:37.909Z,0
2018-01-31T03:10:18.472Z,0
2018-01-31T03:10:59.033Z,0
2018-01-31T03:11:39.590Z,0
2018-01-31T03:12:20.153Z,0
2018-01-31T03:13:00.703Z,0
2018-01-31T03:13:41.275Z,0
2018-01-31T03:14:21.818Z,0
2018-01-31T03:15:02.394Z,0
2018-01-31T03:15:42.965Z,0
2018-01-31T03:16:23.521Z,0
2018-01-31T03:17:04.074Z,0
2018-01-31T03:17:44.635Z,0
2018-01-31T03:18:25.193Z,0
2018-01-31T03:19:05.747Z,0
2018-01-31T03:19:46.297Z,0
2018-01-31T03:20:26.858Z,0
2018-01-31T03:21:07.421Z,0
2018-01-31T03:21:47.988Z,0
2018-01-31T03:22:28.540Z,0
2018-01-31T03:23:09.103Z,0
2018-01-31T03:23:49.653Z,0
2018-01-31T03:24:30.234Z,0
2018-01-31T03:25:10.814Z,0
2018-01-31T03:25:51.359Z,0
2018-01-31T03:26:32.003Z,0
2018-01-31T03:27:12.564Z,0
2018-01-31T03:27:53.131Z,0
2018-01-31T03:28:33.683Z,0
2018-01-31T03:29:14.243Z,0
2018-01-31T03:29:54.795Z,0
2018-01-31T03:30:35.346Z,0
2018-01-31T03:31:15.910Z,0
2018-01-31T03:31:56.471Z,0
2018-01-31T03:32:37.028Z,0
2018-01-31T03:33:17.584Z,0
2018-01-31T03:33:58.146Z,0
2018-01-31T03:34:38.716Z,0
2018-01-31T03:35:19.292Z,0
2018-01-31T03:35:59.848Z,0
2018-01-31T03:36:40.405Z,0
2018-01-31T03:37:20.993Z,0
2018-01-31T03:38:01.550Z,0
2018-01-31T03:38:42.103Z,0
2018-01-31T03:39:22.672Z,0
2018-01-31T03:40:03.227Z,0
2018-01-31T03:40:43.778Z,0
2018-01-31T03:41:24.349Z,0
2018-01-31T03:42:04.895Z,0
2018-01-31T03:42:45.458Z,0
2018-01-31T03:43:26.023Z,0
2018-01-31T03:44:06.603Z,0
2018-01-31T03:44:47.158Z,0
2018-01-31T03:45:27.732Z,0
2018-01-31T03:46:08.324Z,0
2018-01-31T03:46:48.878Z,0
2018-01-31T03:47:29.443Z,0
2018-01-31T03:48:09.996Z,0
2018-01-31T03:48:50.566Z,0
2018-01-31T03:49:31.134Z,0
2018-01-31T03:50:11.697Z,0
2018-01-31T03:50:52.236Z,0
2018-01-31T03:51:32.799Z,0
2018-01-31T03:52:13.358Z,0
2018-01-31T03:52:53.915Z,0
2018-01-31T03:53:34.468Z,0
2018-01-31T03:54:15.027Z,0
2018-01-31T03:54:55.576Z,0
2018-01-31T03:55:36.152Z,0
2018-01-31T03:56:16.725Z,0
2018-01-31T03:56:57.264Z,0
2018-01-31T03:57:37.830Z,0
2018-01-31T03:58:18.404Z,0
2018-01-31T03:58:58.957Z,0
2018-01-31T03:59:39.504Z,0
2018-01-31T04:00:20.054Z,0
2018-01-31T04:01:00.634Z,0
2018-01-31T04:01:41.178Z,0
2018-01-31T04:02:21.736Z,0
2018-01-31T04:03:02.302Z,0
2018-01-31T04:03:42.847Z,0
2018-01-31T04:04:23.399Z,0
2018-01-31T04:05:03.958Z,0
2018-01-31T04:05:44.523Z,0
2018-01-31T04:06:25.072Z,0
2018-01-31T04:07:05.630Z,0
2018-01-31T04:07:46.183Z,0
2018-01-31T04:08:26.740Z,0
2018-01-31T04:09:07.280Z,0
2018-01-31T04:09:47.864Z,0
2018-01-31T04:10:28.430Z,0
2018-01-31T04:11:08.981Z,0
2018-01-31T04:11:49.535Z,0
2018-01-31T04:12:30.114Z,0
2018-01-31T04:13:10.672Z,0
2018-01-31T04:13:51.228Z,0
2018-01-31T04:14:31.806Z,0
2018-01-31T04:15:12.359Z,0
2018-01-31T04:15:52.923Z,0
2018-01-31T04:16:33.486Z,0
2018-01-31T04:17:14.073Z,0
2018-01-31T04:17:54.625Z,0
2018-01-31T04:18:35.178Z,0
2018-01-31T04:19:15.732Z,0
2018-01-31T04:19:56.283Z,0
2018-01-31T04:20:36.870Z,0
2018-01-31T04:21:17.430Z,0
2018-01-31T04:21:58.006Z,0
2018-01-31T04:22:38.607Z,0
2018-01-31T04:23:19.171Z,0
2018-01-31T04:23:59.734Z,0
2018-01-31T04:24:40.295Z,0
2018-01-31T04:25:20.869Z,0
2018-01-31T04:26:01.418Z,0
2018-01-31T04:26:42.000Z,0
2018-01-31T04:27:22.556Z,0
2018-01-31T04:28:03.115Z,0
2018-01-31T04:28:43.682Z,0
2018-01-31T04:29:24.244Z,0
2018-01-31T04:30:04.842Z,0
2018-01-31T04:30:45.340Z,0
2018-01-31T04:31:25.893Z,0
2018-01-31T04:32:06.463Z,0
2018-01-31T04:32:47.030Z,0
2018-01-31T04:33:27.608Z,0
2018-01-31T04:34:08.175Z,0
2018-01-31T04:34:48.719Z,0
2018-01-31T04:35:29.270Z,0
2018-01-31T04:36:09.861Z,0
2018-01-31T04:36:50.423Z,0
2018-01-31T04:37:30.990Z,0
2018-01-31T04:38:11.537Z,0
2018-01-31T04:38:52.115Z,0
2018-01-31T04:39:32.688Z,0
2018-01-31T04:40:13.247Z,0
2018-01-31T04:40:53.803Z,0
2018-01-31T04:41:34.360Z,0
2018-01-31T04:42:14.956Z,0
2018-01-31T04:42:55.508Z,0
2018-01-31T04:43:36.056Z,0
2018-01-31T04:44:16.621Z,0
2018-01-31T04:44:57.182Z,0
2018-01-31T04:45:37.737Z,0
2018-01-31T04:46:18.298Z,0
2018-01-31T04:46:58.861Z,0
2018-01-31T04:47:39.417Z,0
2018-01-31T04:48:20.005Z,0
2018-01-31T04:49:00.560Z,0
2018-01-31T04:49:41.130Z,0
2018-01-31T04:50:21.708Z,0
2018-01-31T04:51:02.318Z,0
2018-01-31T04:51:42.875Z,0
2018-01-31T04:52:23.437Z,0
2018-01-31T04:53:04.006Z,0
2018-01-31T04:53:44.557Z,0
2018-01-31T04:54:25.131Z,0
2018-01-31T04:55:05.702Z,0
2018-01-31T04:55:46.268Z,0
2018-01-31T04:56:26.827Z,0
2018-01-31T04:57:07.379Z,0
2018-01-31T04:57:47.966Z,0
2018-01-31T04:58:28.516Z,0
2018-01-31T04:59:09.087Z,0
2018-01-31T04:59:49.711Z,0
2018-01-31T05:00:30.234Z,0
2018-01-31T05:01:10.790Z,0
2018-01-31T05:01:51.349Z,0
2018-01-31T05:02:31.922Z,0
2018-01-31T05:03:12.491Z,0
2018-01-31T05:03:53.045Z,0
2018-01-31T05:04:33.600Z,0
2018-01-31T05:05:14.157Z,0
2018-01-31T05:05:54.727Z,0
2018-01-31T05:06:35.292Z,0
2018-01-31T05:07:15.842Z,0
2018-01-31T05:07:56.399Z,0
2018-01-31T05:08:36.961Z,0
2018-01-31T05:09:17.549Z,0
2018-01-31T05:09:58.119Z,0
2018-01-31T05:10:38.689Z,0
2018-01-31T05:11:19.236Z,0
2018-01-31T05:11:59.794Z,0
2018-01-31T05:12:40.358Z,0
2018-01-31T05:13:20.918Z,0
2018-01-31T05:14:01.478Z,0
2018-01-31T05:14:42.032Z,0
2018-01-31T05:15:22.584Z,0
2018-01-31T05:16:03.160Z,0
2018-01-31T05:16:43.719Z,0
2018-01-31T05:17:24.269Z,0
2018-01-31T05:18:04.834Z,0
2018-01-31T05:18:45.428Z,0
2018-01-31T05:19:25.983Z,0
2018-01-31T05:20:06.540Z,0
2018-01-31T05:20:47.100Z,0
2018-01-31T05:21:27.671Z,0
2018-01-31T05:22:08.222Z,0
2018-01-31T05:22:48.789Z,0
2018-01-31T05:23:29.343Z,0
2018-01-31T05:24:09.905Z,0
2018-01-31T05:24:50.475Z,0
2018-01-31T05:25:31.055Z,0
2018-01-31T05:26:11.612Z,0
2018-01-31T05:26:52.164Z,0
2018-01-31T05:27:32.730Z,0
2018-01-31T05:28:13.294Z,0
2018-01-31T05:28:53.848Z,0
2018-01-31T05:29:34.398Z,0
2018-01-31T05:30:14.964Z,0
2018-01-31T05:30:55.559Z,0
2018-01-31T05:31:36.163Z,0
2018-01-31T05:32:16.790Z,0
2018-01-31T05:32:57.355Z,0
2018-01-31T05:33:37.908Z,0
2018-01-31T05:34:18.480Z,0
2018-01-31T05:34:59.043Z,0
2018-01-31T05:35:39.598Z,0
2018-01-31T05:36:20.167Z,0
2018-01-31T05:37:00.740Z,0
2018-01-31T05:37:41.306Z,0
2018-01-31T05:38:21.875Z,0
2018-01-31T05:39:02.431Z,0
2018-01-31T05:39:43.001Z,0
2018-01-31T05:40:23.560Z,0
2018-01-31T05:41:04.169Z,0
2018-01-31T05:41:44.687Z,0
2018-01-31T05:42:25.235Z,0
2018-01-31T05:43:05.800Z,0
2018-01-31T05:43:46.351Z,0
2018-01-31T05:44:26.889Z,0
2018-01-31T05:45:07.449Z,0
2018-01-31T05:45:48.027Z,0
2018-01-31T05:46:28.562Z,0
2018-01-31T05:47:09.131Z,0
2018-01-31T05:47:49.685Z,0
2018-01-31T05:48:30.270Z,0
2018-01-31T05:49:10.842Z,0
2018-01-31T05:49:51.407Z,0
2018-01-31T05:50:31.948Z,0
2018-01-31T05:51:12.510Z,0
2018-01-31T05:51:53.061Z,0
2018-01-31T05:52:33.609Z,0
2018-01-31T05:53:14.168Z,0
2018-01-31T05:53:54.735Z,0
2018-01-31T05:54:35.290Z,0
2018-01-31T05:55:15.854Z,0
2018-01-31T05:55:56.402Z,0
2018-01-31T05:56:36.955Z,0
2018-01-31T05:57:17.536Z,0
2018-01-31T05:57:58.116Z,0
2018-01-31T05:58:38.639Z,0
2018-01-31T05:59:19.187Z,0
2018-01-31T05:59:59.731Z,0
2018-01-31T06:00:40.283Z,0
2018-01-31T06:01:20.851Z,0
2018-01-31T06:02:01.415Z,0
2018-01-31T06:02:41.976Z,0
2018-01-31T06:03:22.529Z,0
2018-01-31T06:04:03.095Z,0
2018-01-31T06:04:43.650Z,0
2018-01-31T06:05:24.211Z,0
2018-01-31T06:06:04.769Z,0
2018-01-31T06:06:45.337Z,0
2018-01-31T06:07:25.939Z,0
2018-01-31T06:08:06.501Z,0
2018-01-31T06:08:47.148Z,0
2018-01-31T06:09:27.718Z,0
2018-01-31T06:10:08.348Z,0
2018-01-31T06:10:48.995Z,0
2018-01-31T06:11:29.595Z,0
2018-01-31T06:12:10.160Z,0
2018-01-31T06:12:50.700Z,0
2018-01-31T06:13:31.251Z,0
2018-01-31T06:14:11.818Z,0
2018-01-31T06:14:52.380Z,0
2018-01-31T06:15:32.945Z,0
2018-01-31T06:16:13.497Z,0
2018-01-31T06:16:54.062Z,0
2018-01-31T06:17:34.626Z,0
2018-01-31T06:18:15.226Z,0
2018-01-31T06:18:55.783Z,0
2018-01-31T06:19:36.336Z,0
2018-01-31T06:20:16.903Z,0
2018-01-31T06:20:57.460Z,0
2018-01-31T06:21:38.011Z,4
2018-01-31T06:22:18.559Z,0
2018-01-31T06:22:59.593Z,0
2018-01-31T06:23:40.147Z,4
2018-01-31T06:24:21.683Z,4
2018-01-31T06:25:02.122Z,4
2018-01-31T06:25:42.680Z,4
2018-01-31T06:26:23.238Z,4
2018-01-31T06:27:03.790Z,4
2018-01-31T06:27:44.371Z,0
2018-01-31T06:28:24.936Z,4
2018-01-31T06:29:05.499Z,4
2018-01-31T06:29:46.066Z,4
2018-01-31T06:30:26.653Z,4
2018-01-31T06:31:07.221Z,4
2018-01-31T06:31:47.800Z,8
2018-01-31T06:32:28.367Z,4
2018-01-31T06:33:08.946Z,4
2018-01-31T06:33:49.517Z,8
2018-01-31T06:34:30.083Z,8
2018-01-31T06:35:10.660Z,8
2018-01-31T06:35:51.332Z,12
2018-01-31T06:36:32.067Z,12
2018-01-31T06:37:12.642Z,12
2018-01-31T06:37:53.209Z,16
2018-01-31T06:38:33.770Z,12
2018-01-31T06:39:14.722Z,16
2018-01-31T06:39:55.293Z,16
2018-01-31T06:40:35.864Z,16
2018-01-31T06:41:16.426Z,16
2018-01-31T06:41:57.014Z,20
2018-01-31T06:42:37.584Z,20
2018-01-31T06:43:18.530Z,20
2018-01-31T06:43:59.144Z,24
2018-01-31T06:44:39.936Z,24
2018-01-31T06:45:20.522Z,24
2018-01-31T06:46:01.128Z,28
2018-01-31T06:46:41.722Z,32
2018-01-31T06:47:22.370Z,32
2018-01-31T06:48:02.969Z,36
2018-01-31T06:48:43.567Z,36
2018-01-31T06:49:24.134Z,36
2018-01-31T06:50:04.724Z,36
2018-01-31T06:50:45.295Z,36
2018-01-31T06:51:25.848Z,40
2018-01-31T06:52:06.398Z,40
2018-01-31T06:52:46.951Z,40
2018-01-31T06:53:27.679Z,40
2018-01-31T06:54:08.232Z,40
2018-01-31T06:54:48.968Z,40
2018-01-31T06:55:29.528Z,40
2018-01-31T06:56:10.094Z,40
2018-01-31T06:56:50.684Z,40
2018-01-31T06:57:31.243Z,44
2018-01-31T06:58:11.811Z,48
2018-01-31T06:58:52.363Z,48
2018-01-31T06:59:32.910Z,52
2018-01-31T07:00:13.498Z,56
2018-01-31T07:00:54.051Z,56
2018-01-31T07:01:34.613Z,64
2018-01-31T07:02:15.196Z,76
2018-01-31T07:02:55.987Z,76
2018-01-31T07:03:36.538Z,84
2018-01-31T07:04:17.119Z,92
2018-01-31T07:04:57.697Z,108
2018-01-31T07:05:38.316Z,116
2018-01-31T07:06:19.762Z,120
2018-01-31T07:07:00.379Z,136
2018-01-31T07:07:40.941Z,160
2018-01-31T07:08:21.509Z,196
2018-01-31T07:09:02.063Z,232
2018-01-31T07:09:42.655Z,272
2018-01-31T07:10:23.209Z,348
2018-01-31T07:11:03.783Z,404
2018-01-31T07:11:44.350Z,444
2018-01-31T07:12:24.891Z,464
2018-01-31T07:13:05.497Z,448
2018-01-31T07:13:46.052Z,436
2018-01-31T07:14:26.626Z,412
2018-01-31T07:15:07.195Z,408
2018-01-31T07:15:47.795Z,416
2018-01-31T07:16:28.345Z,432
2018-01-31T07:17:08.912Z,464
2018-01-31T07:17:49.465Z,496
2018-01-31T07:18:30.031Z,536
2018-01-31T07:19:10.604Z,588
2018-01-31T07:19:51.162Z,660
2018-01-31T07:20:32.052Z,756
2018-01-31T07:21:12.622Z,840
2018-01-31T07:21:53.194Z,892
2018-01-31T07:22:33.749Z,872
2018-01-31T07:23:14.320Z,764
2018-01-31T07:23:54.891Z,636
2018-01-31T07:24:35.514Z,508
2018-01-31T07:25:17.101Z,432
2018-01-31T07:25:58.663Z,400
2018-01-31T07:26:39.243Z,416
2018-01-31T07:27:19.818Z,448
2018-01-31T07:28:00.388Z,488
2018-01-31T07:28:41.378Z,488
2018-01-31T07:29:21.947Z,476
2018-01-31T07:30:02.619Z,488
2018-01-31T07:30:43.234Z,520
2018-01-31T07:31:24.012Z,560
2018-01-31T07:32:04.570Z,584
2018-01-31T07:32:45.150Z,608
2018-01-31T07:33:25.769Z,668
2018-01-31T07:34:06.910Z,756
2018-01-31T07:34:47.522Z,840
2018-01-31T07:35:28.203Z,908
2018-01-31T07:36:09.755Z,932
2018-01-31T07:36:50.274Z,900
2018-01-31T07:37:30.831Z,892
2018-01-31T07:38:11.383Z,916
2018-01-31T07:38:51.968Z,944
2018-01-31T07:39:32.598Z,988
2018-01-31T07:40:13.164Z,1008
2018-01-31T07:40:53.713Z,992
2018-01-31T07:41:34.289Z,996
2018-01-31T07:42:14.847Z,1004
2018-01-31T07:42:55.451Z,952
2018-01-31T07:43:36.016Z,900
2018-01-31T07:44:16.692Z,872
2018-01-31T07:44:57.245Z,876
2018-01-31T07:45:37.817Z,924
2018-01-31T07:46:18.372Z,976
2018-01-31T07:46:58.946Z,1016
2018-01-31T07:47:39.536Z,1060
2018-01-31T07:48:20.590Z,1064
2018-01-31T07:49:01.176Z,1060
2018-01-31T07:49:41.728Z,1080
2018-01-31T07:50:22.380Z,1116
2018-01-31T07:51:03.007Z,1160
2018-01-31T07:51:43.650Z,1176
2018-01-31T07:52:24.227Z,1160
2018-01-31T07:53:05.071Z,1164
2018-01-31T07:53:45.647Z,1280
2018-01-31T07:54:26.222Z,1488
2018-01-31T07:55:06.781Z,1700
2018-01-31T07:55:47.334Z,1868
2018-01-31T07:56:27.890Z,1992
2018-01-31T07:57:08.464Z,2060
2018-01-31T07:57:49.021Z,2100
2018-01-31T07:58:29.580Z,2144
2018-01-31T07:59:10.133Z,2124
2018-01-31T07:59:50.692Z,2088
2018-01-31T08:00:31.243Z,2032
2018-01-31T08:01:11.803Z,1944
2018-01-31T08:01:52.369Z,1844
2018-01-31T08:02:32.932Z,1760
2018-01-31T08:03:13.513Z,1700
2018-01-31T08:03:54.067Z,1700
2018-01-31T08:04:34.626Z,1748
2018-01-31T08:05:15.182Z,1756
2018-01-31T08:05:55.751Z,1664
2018-01-31T08:06:36.301Z,1552
2018-01-31T08:07:16.852Z,1452
2018-01-31T08:07:57.427Z,1392
2018-01-31T08:08:37.942Z,1316
2018-01-31T08:09:18.513Z,1240
2018-01-31T08:10:00.016Z,1116
2018-01-31T08:10:40.575Z,1048
2018-01-31T08:11:21.138Z,1036
2018-01-31T08:12:01.715Z,1068
2018-01-31T08:12:42.264Z,1104
2018-01-31T08:13:22.857Z,1148
2018-01-31T08:14:03.382Z,1196
2018-01-31T08:14:43.938Z,1204
2018-01-31T08:15:24.482Z,1192
2018-01-31T08:16:05.039Z,1156
2018-01-31T08:16:45.589Z,1092
2018-01-31T08:17:26.134Z,1012
2018-01-31T08:18:06.691Z,924
2018-01-31T08:18:47.237Z,840
2018-01-31T08:19:27.791Z,784
2018-01-31T08:20:08.343Z,760
2018-01-31T08:20:48.953Z,792
2018-01-31T08:21:29.512Z,840
2018-01-31T08:22:10.071Z,872
2018-01-31T08:22:50.626Z,884
2018-01-31T08:23:31.192Z,896
2018-01-31T08:24:11.753Z,892
2018-01-31T08:24:52.307Z,856
2018-01-31T08:25:32.863Z,840
2018-01-31T08:26:13.407Z,784
2018-01-31T08:26:54.040Z,756
2018-01-31T08:27:34.599Z,752
2018-01-31T08:28:15.149Z,772
2018-01-31T08:28:55.748Z,832
2018-01-31T08:29:36.300Z,912
2018-01-31T08:30:16.867Z,988
2018-01-31T08:30:57.429Z,1024
2018-01-31T08:31:37.975Z,1016
2018-01-31T08:32:18.551Z,1060
2018-01-31T08:32:59.087Z,1124
2018-01-31T08:33:39.645Z,1152
2018-01-31T08:34:20.201Z,1140
2018-01-31T08:35:00.770Z,1104
2018-01-31T08:35:41.319Z,1028
2018-01-31T08:36:21.883Z,944
2018-01-31T08:37:02.444Z,872
2018-01-31T08:37:42.991Z,824
2018-01-31T08:38:23.535Z,812
2018-01-31T08:39:04.100Z,820
2018-01-31T08:39:44.649Z,868
2018-01-31T08:40:25.202Z,908
2018-01-31T08:41:05.799Z,940
2018-01-31T08:41:46.356Z,932
2018-01-31T08:42:26.916Z,908
2018-01-31T08:43:07.472Z,880
2018-01-31T08:43:48.030Z,896
2018-01-31T08:44:28.593Z,956
2018-01-31T08:45:09.136Z,1000
2018-01-31T08:45:49.685Z,996
2018-01-31T08:46:30.262Z,952
2018-01-31T08:47:10.809Z,904
2018-01-31T08:47:51.370Z,868
2018-01-31T08:48:31.932Z,804
2018-01-31T08:49:12.495Z,728
2018-01-31T08:49:53.045Z,668
2018-01-31T08:50:33.626Z,624
2018-01-31T08:51:14.178Z,656
2018-01-31T08:51:54.763Z,728
2018-01-31T08:52:35.323Z,760
2018-01-31T08:53:15.879Z,760
2018-01-31T08:53:56.428Z,732
2018-01-31T08:54:36.978Z,728
2018-01-31T08:55:17.531Z,760
2018-01-31T08:55:58.090Z,800
2018-01-31T08:56:38.635Z,816
2018-01-31T08:57:19.207Z,792
2018-01-31T08:57:59.760Z,772
2018-01-31T08:58:40.318Z,756
2018-01-31T08:59:20.885Z,760
2018-01-31T09:00:01.439Z,768
2018-01-31T09:00:42.001Z,792
2018-01-31T09:01:22.557Z,800
2018-01-31T09:02:03.118Z,808
2018-01-31T09:02:43.670Z,788
2018-01-31T09:03:24.228Z,776
2018-01-31T09:04:04.763Z,764
2018-01-31T09:04:45.315Z,732
2018-01-31T09:05:25.878Z,708
2018-01-31T09:06:06.417Z,704
2018-01-31T09:06:46.970Z,696
2018-01-31T09:07:27.525Z,704
2018-01-31T09:08:08.075Z,732
2018-01-31T09:08:48.614Z,752
2018-01-31T09:09:29.164Z,764
2018-01-31T09:10:09.717Z,768
2018-01-31T09:10:50.278Z,784
2018-01-31T09:11:30.827Z,780
2018-01-31T09:12:11.379Z,788
2018-01-31T09:12:51.921Z,796
2018-01-31T09:13:32.476Z,788
2018-01-31T09:14:13.023Z,780
2018-01-31T09:14:53.580Z,740
2018-01-31T09:15:34.130Z,744
2018-01-31T09:16:14.725Z,744
2018-01-31T09:16:55.234Z,752
2018-01-31T09:17:35.783Z,756
2018-01-31T09:18:16.360Z,748
2018-01-31T09:18:56.924Z,728
2018-01-31T09:19:37.493Z,692
2018-01-31T09:20:18.049Z,680
2018-01-31T09:20:58.609Z,708
2018-01-31T09:21:39.158Z,692
2018-01-31T09:22:19.714Z,748
2018-01-31T09:23:00.294Z,860
2018-01-31T09:23:40.850Z,996
2018-01-31T09:24:21.397Z,1060
2018-01-31T09:25:01.995Z,1060
2018-01-31T09:25:42.522Z,1004
2018-01-31T09:26:23.083Z,1000
2018-01-31T09:27:03.666Z,912
2018-01-31T09:27:44.224Z,876
2018-01-31T09:28:24.776Z,844
2018-01-31T09:29:05.325Z,740
2018-01-31T09:29:45.878Z,616
2018-01-31T09:30:26.436Z,592
2018-01-31T09:31:06.996Z,640
2018-01-31T09:31:47.543Z,688
2018-01-31T09:32:28.106Z,808
2018-01-31T09:33:08.665Z,1040
2018-01-31T09:33:49.215Z,1168
2018-01-31T09:34:29.759Z,1100
2018-01-31T09:35:10.320Z,1020
2018-01-31T09:35:50.871Z,1032
2018-01-31T09:36:31.419Z,828
2018-01-31T09:37:11.959Z,808
2018-01-31T09:37:52.515Z,768
2018-01-31T09:38:33.045Z,856
2018-01-31T09:39:13.595Z,844
2018-01-31T09:39:54.145Z,988
2018-01-31T09:40:34.715Z,876
2018-01-31T09:41:15.268Z,776
2018-01-31T09:41:55.830Z,916
2018-01-31T09:42:36.405Z,1188
2018-01-31T09:43:16.971Z,1312
2018-01-31T09:43:57.536Z,1348
2018-01-31T09:44:38.086Z,1256
2018-01-31T09:45:18.634Z,976
2018-01-31T09:45:59.226Z,928
2018-01-31T09:46:39.766Z,1276
2018-01-31T09:47:20.305Z,1136
2018-01-31T09:48:00.862Z,876
2018-01-31T09:48:41.417Z,692
2018-01-31T09:49:21.974Z,656
2018-01-31T09:50:02.535Z,692
2018-01-31T09:50:43.086Z,672
2018-01-31T09:51:23.668Z,864
2018-01-31T09:52:04.258Z,1104
2018-01-31T09:52:44.819Z,1164
2018-01-31T09:53:25.379Z,1256
2018-01-31T09:54:05.931Z,1284
2018-01-31T09:54:46.481Z,1100
2018-01-31T09:55:27.044Z,1000
2018-01-31T09:56:07.595Z,1020
2018-01-31T09:56:48.152Z,784
2018-01-31T09:57:28.712Z,584
2018-01-31T09:58:09.276Z,480
2018-01-31T09:58:49.829Z,472
2018-01-31T09:59:30.378Z,596
2018-01-31T10:00:10.948Z,576
2018-01-31T10:00:51.510Z,612
2018-01-31T10:01:32.061Z,756
2018-01-31T10:02:12.626Z,848
2018-01-31T10:02:53.186Z,660
2018-01-31T10:03:33.745Z,684
2018-01-31T10:04:14.300Z,680
2018-01-31T10:04:54.886Z,820
2018-01-31T10:05:35.415Z,804
2018-01-31T10:06:15.990Z,832
2018-01-31T10:06:56.562Z,944
2018-01-31T10:07:37.131Z,876
2018-01-31T10:08:17.681Z,996
2018-01-31T10:08:58.239Z,1000
2018-01-31T10:09:38.788Z,1036
2018-01-31T10:10:19.346Z,1048
2018-01-31T10:10:59.889Z,892
2018-01-31T10:11:40.438Z,720
2018-01-31T10:12:20.996Z,620
2018-01-31T10:13:01.575Z,608
2018-01-31T10:13:42.124Z,708
2018-01-31T10:14:22.677Z,736
2018-01-31T10:15:03.233Z,876
2018-01-31T10:15:43.773Z,936
2018-01-31T10:16:24.341Z,884
2018-01-31T10:17:04.894Z,840
2018-01-31T10:17:45.468Z,844
2018-01-31T10:18:26.037Z,768
2018-01-31T10:19:06.587Z,804
2018-01-31T10:19:47.182Z,868
2018-01-31T10:20:27.735Z,836
2018-01-31T10:21:08.287Z,764
2018-01-31T10:21:48.884Z,748
2018-01-31T10:22:29.409Z,732
2018-01-31T10:23:09.971Z,744
2018-01-31T10:23:50.549Z,736
2018-01-31T10:24:31.119Z,692
2018-01-31T10:25:11.672Z,632
2018-01-31T10:25:52.220Z,676
2018-01-31T10:26:32.782Z,724
2018-01-31T10:27:13.343Z,700
2018-01-31T10:27:53.895Z,732
2018-01-31T10:28:34.450Z,672
2018-01-31T10:29:15.010Z,672
2018-01-31T10:29:55.572Z,700
2018-01-31T10:30:36.124Z,760
2018-01-31T10:31:16.715Z,800
2018-01-31T10:31:57.413Z,832
2018-01-31T10:32:38.129Z,876
2018-01-31T10:33:18.911Z,892
2018-01-31T10:33:59.620Z,888
2018-01-31T10:34:40.417Z,900
2018-01-31T10:35:21.193Z,888
2018-01-31T10:36:01.757Z,900
2018-01-31T10:36:42.312Z,916
2018-01-31T10:37:22.921Z,904
2018-01-31T10:38:03.433Z,896
2018-01-31T10:38:43.997Z,884
2018-01-31T10:39:24.561Z,884
2018-01-31T10:40:05.168Z,948
2018-01-31T10:40:45.679Z,1048
2018-01-31T10:41:26.248Z,1104
2018-01-31T10:42:06.836Z,1144
2018-01-31T10:42:47.407Z,1176
2018-01-31T10:43:27.971Z,1200
2018-01-31T10:44:08.531Z,1104
2018-01-31T10:44:49.090Z,1044
2018-01-31T10:45:29.669Z,1044
2018-01-31T10:46:10.235Z,1084
2018-01-31T10:46:50.797Z,1116
2018-01-31T10:47:31.341Z,1220
2018-01-31T10:48:11.908Z,1276
2018-01-31T10:48:52.461Z,1296
2018-01-31T10:49:33.016Z,1336
2018-01-31T10:50:13.585Z,1472
2018-01-31T10:50:54.138Z,1536
2018-01-31T10:51:34.706Z,1464
2018-01-31T10:52:15.259Z,1476
2018-01-31T10:52:55.814Z,1396
2018-01-31T10:57:39.748Z,1492
2018-01-31T10:58:20.369Z,1532
2018-01-31T10:59:00.921Z,1512
2018-01-31T10:59:41.487Z,1348
2018-01-31T11:00:22.057Z,1408
2018-01-31T11:01:02.620Z,1356
2018-01-31T11:01:43.184Z,1292
2018-01-31T11:02:23.735Z,1092
2018-01-31T11:03:04.372Z,1088
2018-01-31T11:03:44.952Z,1160
2018-01-31T11:04:25.505Z,1208
2018-01-31T11:05:06.067Z,1268
2018-01-31T11:05:46.759Z,1264
2018-01-31T11:06:27.331Z,1332
2018-01-31T11:07:07.898Z,1352
2018-01-31T11:07:48.477Z,1268
2018-01-31T11:08:29.111Z,1172
2018-01-31T11:09:09.737Z,1176
2018-01-31T11:09:50.357Z,1260
2018-01-31T11:10:30.921Z,1244
2018-01-31T11:11:11.509Z,1112
2018-01-31T11:11:52.059Z,956
2018-01-31T11:12:32.615Z,876
2018-01-31T11:13:13.170Z,860
2018-01-31T11:13:53.745Z,992
2018-01-31T11:14:34.307Z,996
2018-01-31T11:15:14.873Z,948
2018-01-31T11:15:55.442Z,984
2018-01-31T11:16:36.009Z,1072
2018-01-31T11:17:16.569Z,1032
2018-01-31T11:17:57.120Z,1052
2018-01-31T11:18:37.675Z,1120
2018-01-31T11:19:18.230Z,1180
2018-01-31T11:19:58.788Z,1208
2018-01-31T11:20:39.357Z,1232
2018-01-31T11:21:19.908Z,1232
2018-01-31T11:22:00.463Z,1248
2018-01-31T11:22:41.012Z,1432
2018-01-31T11:23:21.565Z,1484
2018-01-31T11:24:02.157Z,1556
2018-01-31T11:24:42.724Z,1724
2018-01-31T11:25:23.280Z,1676
2018-01-31T11:26:03.834Z,1600
2018-01-31T11:26:44.391Z,1408
2018-01-31T11:27:24.938Z,1268
2018-01-31T11:28:05.514Z,1388
2018-01-31T11:28:46.079Z,1524
2018-01-31T11:29:26.635Z,1548
2018-01-31T11:30:07.204Z,1624